Time;durP1;ratioP1;P1;durP2;ratioP2;P2;SDS_P1;SDS_P2;PMS_P1;PMS_P2;Temp;Humidity;BMP_temperature;BMP_pressure;BME280_temperature;BME280_humidity;BME280_pressure;Samples;Min_cycle;Max_cycle;Signal;HPM_P1;HPM_P2
2022/04/10 00:00:28;;;;;;;2.70;1.58;;;;;;;;;;5084075;28;20197;-74
2022/04/10 00:02:55;;;;;;;1.88;1.52;;;;;;;;;;5083478;28;20202;-74
2022/04/10 00:05:22;;;;;;;3.72;1.70;;;;;;;;;;5078153;28;20669;-73
2022/04/10 00:07:49;;;;;;;2.95;1.90;;;;;;;;;;5084896;28;21016;-75
2022/04/10 00:10:17;;;;;;;2.45;1.58;;;;;;;;;;5086987;28;20213;-74
2022/04/10 00:12:45;;;;;;;2.40;1.95;;;;;;;;;;5075214;28;20214;-74
2022/04/10 00:15:12;;;;;;;3.92;1.70;;;;;;;;;;5082973;28;20205;-75
2022/04/10 00:17:39;;;;;;;3.10;1.80;;;;;;;;;;5084981;28;20275;-74
2022/04/10 00:20:07;;;;;;;2.28;1.75;;;;;;;;;;5080108;28;20212;-74
2022/04/10 00:22:40;;;;;;;1.95;1.75;;;;;;;;;;5071729;28;20202;-75
2022/04/10 00:25:08;;;;;;;4.50;1.83;;;;;;;;;;5070980;28;20676;-74
2022/04/10 00:27:35;;;;;;;2.58;1.90;;;;;;;;;;5076478;28;20217;-77
2022/04/10 00:30:04;;;;;;;2.60;1.88;;;;;;;;;;5077547;28;20221;-76
2022/04/10 00:32:31;;;;;;;2.00;1.77;;;;;;;;;;5073636;28;20526;-76
2022/04/10 00:34:58;;;;;;;2.28;1.83;;;;;;;;;;5079071;28;20377;-74
2022/04/10 00:37:26;;;;;;;3.47;2.22;;;;;;;;;;5076113;28;20234;-73
2022/04/10 00:39:53;;;;;;;1.80;1.65;;;;;;;;;;5078371;28;20205;-76
2022/04/10 00:42:20;;;;;;;3.33;1.70;;;;;;;;;;5073410;28;20568;-73
2022/04/10 00:44:47;;;;;;;2.50;1.88;;;;;;;;;;5073915;28;21502;-74
2022/04/10 00:47:16;;;;;;;4.55;2.00;;;;;;;;;;5072539;28;20200;-76
2022/04/10 00:49:43;;;;;;;2.03;1.80;;;;;;;;;;5069802;28;20213;-77
2022/04/10 00:52:10;;;;;;;3.03;2.00;;;;;;;;;;5073886;28;20186;-75
2022/04/10 00:54:37;;;;;;;4.15;2.53;;;;;;;;;;5077598;28;20682;-75
2022/04/10 00:57:05;;;;;;;1.90;1.67;;;;;;;;;;5073064;28;20232;-75
2022/04/10 00:59:32;;;;;;;3.25;2.53;;;;;;;;;;5082850;28;20209;-75
2022/04/10 01:01:59;;;;;;;4.18;1.77;;;;;;;;;;5081537;28;20193;-76
2022/04/10 01:04:27;;;;;;;4.13;2.28;;;;;;;;;;5076996;28;20200;-75
2022/04/10 01:06:54;;;;;;;3.63;2.20;;;;;;;;;;5090439;28;20197;-74
2022/04/10 01:09:22;;;;;;;2.67;1.85;;;;;;;;;;5083341;28;20750;-76
2022/04/10 01:11:49;;;;;;;1.85;1.67;;;;;;;;;;5087787;28;20201;-75
2022/04/10 01:14:17;;;;;;;2.78;1.83;;;;;;;;;;5078217;28;20565;-76
2022/04/10 01:16:44;;;;;;;2.15;1.73;;;;;;;;;;5081695;28;20545;-76
2022/04/10 01:19:12;;;;;;;3.35;1.83;;;;;;;;;;5082729;28;20194;-77
2022/04/10 01:21:44;;;;;;;3.55;2.13;;;;;;;;;;5083549;28;20682;-76
2022/04/10 01:24:12;;;;;;;3.00;2.00;;;;;;;;;;5078553;28;20678;-74
2022/04/10 01:26:39;;;;;;;2.03;1.83;;;;;;;;;;5081569;28;20212;-75
2022/04/10 01:29:08;;;;;;;5.10;2.13;;;;;;;;;;5081551;28;20225;-74
2022/04/10 01:31:36;;;;;;;1.48;1.35;;;;;;;;;;5079138;28;20201;-74
2022/04/10 01:34:05;;;;;;;3.28;2.00;;;;;;;;;;5084266;28;20193;-76
2022/04/10 01:36:32;;;;;;;4.15;1.90;;;;;;;;;;5077673;28;20206;-76
2022/04/10 01:39:00;;;;;;;2.80;2.33;;;;;;;;;;5079474;28;20205;-74
2022/04/10 01:41:30;;;;;;;8.75;2.00;;;;;;;;;;5077654;28;20224;-74
2022/04/10 01:43:57;;;;;;;2.97;1.75;;;;;;;;;;5079097;28;20193;-75
2022/04/10 01:46:25;;;;;;;8.02;2.00;;;;;;;;;;5081065;28;20560;-76
2022/04/10 01:48:52;;;;;;;2.90;1.70;;;;;;;;;;5079565;28;20194;-75
2022/04/10 01:51:19;;;;;;;2.42;1.95;;;;;;;;;;5087216;28;20213;-75
2022/04/10 01:53:47;;;;;;;4.75;2.28;;;;;;;;;;5084603;28;20194;-76
2022/04/10 01:56:14;;;;;;;2.88;2.58;;;;;;;;;;5076474;28;20200;-76
2022/04/10 01:58:43;;;;;;;3.25;2.60;;;;;;;;;;5083476;28;20197;-75
2022/04/10 02:01:10;;;;;;;3.90;2.13;;;;;;;;;;5083679;28;20190;-76
2022/04/10 02:03:38;;;;;;;2.33;1.88;;;;;;;;;;5075976;28;20209;-75
2022/04/10 02:06:06;;;;;;;4.20;2.30;;;;;;;;;;5083736;28;20217;-75
2022/04/10 02:08:34;;;;;;;4.05;1.85;;;;;;;;;;5083483;28;20657;-75
2022/04/10 02:11:01;;;;;;;4.82;2.10;;;;;;;;;;5080537;28;20225;-77
2022/04/10 02:13:29;;;;;;;2.90;2.30;;;;;;;;;;5072103;28;20213;-77
2022/04/10 02:15:57;;;;;;;2.47;1.60;;;;;;;;;;5080256;28;20555;-75
2022/04/10 02:18:24;;;;;;;6.30;2.30;;;;;;;;;;5079189;28;20592;-76
2022/04/10 02:20:51;;;;;;;4.63;2.50;;;;;;;;;;5082429;28;20289;-75
2022/04/10 02:23:18;;;;;;;3.42;2.22;;;;;;;;;;5081065;28;20198;-75
2022/04/10 02:25:45;;;;;;;3.17;2.20;;;;;;;;;;5089116;28;20206;-77
2022/04/10 02:28:12;;;;;;;4.13;2.30;;;;;;;;;;5078359;28;20224;-75
2022/04/10 02:30:39;;;;;;;4.35;2.95;;;;;;;;;;5079306;28;20592;-75
2022/04/10 02:33:08;;;;;;;3.75;2.45;;;;;;;;;;5074311;28;20202;-75
2022/04/10 02:35:35;;;;;;;4.13;1.98;;;;;;;;;;5075216;28;20579;-76
2022/04/10 02:38:02;;;;;;;3.58;3.22;;;;;;;;;;5080357;28;20584;-76
2022/04/10 02:40:29;;;;;;;3.13;2.15;;;;;;;;;;5081785;28;20194;-78
2022/04/10 02:42:56;;;;;;;3.90;2.20;;;;;;;;;;5068647;28;20225;-74
2022/04/10 02:45:23;;;;;;;2.97;2.25;;;;;;;;;;5084503;28;20204;-75
2022/04/10 02:47:50;;;;;;;5.70;3.10;;;;;;;;;;5083618;28;20198;-75
2022/04/10 02:50:19;;;;;;;5.60;2.97;;;;;;;;;;5084458;28;20202;-76
2022/04/10 02:52:46;;;;;;;3.00;2.28;;;;;;;;;;5081947;28;20197;-77
2022/04/10 02:55:13;;;;;;;3.72;2.38;;;;;;;;;;5078519;28;20204;-77
2022/04/10 02:57:40;;;;;;;4.43;2.90;;;;;;;;;;5074024;28;20198;-76
2022/04/10 03:00:08;;;;;;;4.63;2.30;;;;;;;;;;5081126;28;20194;-76
2022/04/10 03:02:35;;;;;;;7.75;2.95;;;;;;;;;;5075307;28;20657;-75
2022/04/10 03:05:02;;;;;;;5.57;2.70;;;;;;;;;;5074205;28;20193;-76
2022/04/10 03:07:30;;;;;;;4.85;2.10;;;;;;;;;;5077693;28;20209;-75
2022/04/10 03:09:57;;;;;;;3.97;2.45;;;;;;;;;;5082708;28;20197;-76
2022/04/10 03:12:24;;;;;;;2.78;2.40;;;;;;;;;;5075188;28;20198;-75
2022/04/10 03:14:51;;;;;;;5.10;3.30;;;;;;;;;;5079040;28;20660;-74
2022/04/10 03:17:18;;;;;;;3.13;2.08;;;;;;;;;;5084772;28;20564;-75
2022/04/10 03:19:45;;;;;;;3.50;2.97;;;;;;;;;;5083119;28;20217;-74
2022/04/10 03:22:12;;;;;;;3.42;2.83;;;;;;;;;;5076971;28;20197;-75
2022/04/10 03:24:41;;;;;;;2.90;2.60;;;;;;;;;;5082162;28;20209;-74
2022/04/10 03:27:08;;;;;;;8.93;3.10;;;;;;;;;;5074902;28;20198;-74
2022/04/10 03:29:35;;;;;;;7.30;2.53;;;;;;;;;;5072593;28;20237;-74
2022/04/10 03:32:02;;;;;;;4.07;2.60;;;;;;;;;;5066651;28;20248;-76
2022/04/10 03:34:29;;;;;;;3.03;2.25;;;;;;;;;;5075354;28;20249;-74
2022/04/10 03:36:56;;;;;;;6.88;3.55;;;;;;;;;;5079982;28;20198;-75
2022/04/10 03:39:23;;;;;;;3.55;2.15;;;;;;;;;;5087439;28;20202;-75
2022/04/10 03:41:52;;;;;;;4.63;2.83;;;;;;;;;;5082822;28;20652;-76
2022/04/10 03:44:19;;;;;;;4.50;2.85;;;;;;;;;;5076309;28;20206;-77
2022/04/10 03:46:46;;;;;;;3.78;2.70;;;;;;;;;;5073875;28;20205;-74
2022/04/10 03:49:13;;;;;;;5.53;3.20;;;;;;;;;;5085383;28;20193;-75
2022/04/10 03:51:40;;;;;;;3.10;2.60;;;;;;;;;;5085614;28;20639;-79
2022/04/10 03:54:07;;;;;;;4.07;3.03;;;;;;;;;;5090352;28;20198;-76
2022/04/10 03:56:34;;;;;;;9.75;3.42;;;;;;;;;;5081337;28;20513;-76
2022/04/10 03:59:03;;;;;;;4.05;2.58;;;;;;;;;;5075590;28;20203;-77
2022/04/10 04:01:30;;;;;;;7.57;3.50;;;;;;;;;;5078360;28;20201;-76
2022/04/10 04:03:57;;;;;;;6.00;3.05;;;;;;;;;;5081057;28;20205;-75
2022/04/10 04:06:24;;;;;;;7.43;3.45;;;;;;;;;;5081690;28;20212;-76
2022/04/10 04:08:51;;;;;;;3.67;2.90;;;;;;;;;;5079641;28;20209;-74
2022/04/10 04:11:19;;;;;;;3.38;2.40;;;;;;;;;;5084061;28;20224;-74
2022/04/10 04:13:46;;;;;;;3.55;2.90;;;;;;;;;;5071453;28;20661;-76
2022/04/10 04:16:15;;;;;;;4.35;2.70;;;;;;;;;;5080576;28;20197;-76
2022/04/10 04:18:42;;;;;;;3.47;2.95;;;;;;;;;;5079304;28;20219;-76
2022/04/10 04:21:09;;;;;;;3.97;2.75;;;;;;;;;;5074925;28;20731;-76
2022/04/10 04:23:36;;;;;;;3.05;2.60;;;;;;;;;;5077359;28;20204;-75
2022/04/10 04:26:03;;;;;;;2.72;2.47;;;;;;;;;;5075853;28;20198;-76
2022/04/10 04:28:32;;;;;;;4.25;2.83;;;;;;;;;;5071623;28;20214;-75
2022/04/10 04:30:59;;;;;;;2.80;2.28;;;;;;;;;;5080678;28;20337;-75
2022/04/10 04:33:27;;;;;;;2.92;2.55;;;;;;;;;;5077726;28;20199;-74
2022/04/10 04:35:55;;;;;;;3.85;3.17;;;;;;;;;;5080809;28;20205;-75
2022/04/10 04:38:22;;;;;;;2.40;2.13;;;;;;;;;;5083737;28;20198;-76
2022/04/10 04:40:49;;;;;;;2.65;2.38;;;;;;;;;;5080878;28;20202;-75
2022/04/10 04:43:16;;;;;;;5.07;2.83;;;;;;;;;;5074488;28;20205;-76
2022/04/10 04:45:43;;;;;;;3.85;2.60;;;;;;;;;;5081017;28;20216;-75
2022/04/10 04:48:10;;;;;;;5.10;2.95;;;;;;;;;;5080966;28;20197;-75
2022/04/10 04:50:38;;;;;;;3.50;2.92;;;;;;;;;;5073540;28;20217;-75
2022/04/10 04:53:06;;;;;;;3.75;2.58;;;;;;;;;;5079277;28;20201;-74
2022/04/10 04:55:33;;;;;;;3.47;2.85;;;;;;;;;;5088503;28;20202;-75
2022/04/10 04:58:00;;;;;;;6.57;2.60;;;;;;;;;;5079214;28;20193;-75
2022/04/10 05:00:27;;;;;;;5.95;2.80;;;;;;;;;;5083209;28;20198;-75
2022/04/10 05:02:54;;;;;;;5.40;3.00;;;;;;;;;;5081795;28;20201;-76
2022/04/10 05:05:21;;;;;;;6.75;2.85;;;;;;;;;;5082348;28;20194;-75
2022/04/10 05:07:50;;;;;;;3.08;2.65;;;;;;;;;;5080539;28;20727;-75
2022/04/10 05:10:17;;;;;;;2.63;2.38;;;;;;;;;;5077216;28;20206;-75
2022/04/10 05:12:44;;;;;;;6.15;2.58;;;;;;;;;;5071778;28;20202;-76
2022/04/10 05:15:11;;;;;;;4.00;3.17;;;;;;;;;;5083644;28;20574;-75
2022/04/10 05:17:38;;;;;;;2.90;2.15;;;;;;;;;;5072252;28;20208;-76
2022/04/10 05:20:07;;;;;;;5.60;2.83;;;;;;;;;;5072779;28;20213;-75
2022/04/10 05:22:34;;;;;;;3.70;2.30;;;;;;;;;;5078297;28;20284;-75
2022/04/10 05:25:03;;;;;;;3.92;2.63;;;;;;;;;;5081385;28;20210;-74
2022/04/10 05:27:30;;;;;;;4.32;3.40;;;;;;;;;;5078970;28;20206;-74
2022/04/10 05:29:57;;;;;;;5.68;2.83;;;;;;;;;;5084641;28;20208;-75
2022/04/10 05:32:24;;;;;;;5.45;3.40;;;;;;;;;;5085175;28;20217;-74
2022/04/10 05:34:51;;;;;;;6.35;4.82;;;;;;;;;;5080129;28;20208;-75
2022/04/10 05:37:18;;;;;;;3.97;2.95;;;;;;;;;;5070646;28;20198;-74
2022/04/10 05:39:45;;;;;;;3.00;2.70;;;;;;;;;;5070559;28;20206;-75
2022/04/10 05:42:14;;;;;;;3.47;3.00;;;;;;;;;;5071492;28;20199;-75
2022/04/10 05:44:41;;;;;;;6.57;2.92;;;;;;;;;;5076901;28;20661;-77
2022/04/10 05:47:08;;;;;;;3.65;2.60;;;;;;;;;;5071756;28;20201;-76
2022/04/10 05:49:35;;;;;;;3.78;2.58;;;;;;;;;;5073669;28;20696;-78
2022/04/10 05:52:02;;;;;;;3.88;2.63;;;;;;;;;;5079884;28;20700;-76
2022/04/10 05:54:29;;;;;;;3.13;2.60;;;;;;;;;;5087853;28;20201;-76
2022/04/10 05:56:56;;;;;;;5.78;2.38;;;;;;;;;;5078643;28;20206;-76
2022/04/10 05:59:25;;;;;;;4.65;3.63;;;;;;;;;;5086356;28;20197;-76
2022/04/10 06:01:53;;;;;;;6.68;2.55;;;;;;;;;;5086575;28;20198;-75
2022/04/10 06:04:20;;;;;;;4.68;2.95;;;;;;;;;;5081652;28;20190;-75
2022/04/10 06:06:47;;;;;;;4.88;2.70;;;;;;;;;;5087270;28;20223;-77
2022/04/10 06:09:14;;;;;;;4.20;2.20;;;;;;;;;;5107793;28;20189;-75
2022/04/10 06:11:41;;;;;;;3.85;2.28;;;;;;;;;;5083265;28;20217;-76
2022/04/10 06:14:08;;;;;;;4.00;2.53;;;;;;;;;;5076756;28;20197;-73
2022/04/10 06:16:37;;;;;;;6.13;2.50;;;;;;;;;;5078826;28;20205;-76
2022/04/10 06:19:04;;;;;;;3.83;2.00;;;;;;;;;;5077064;28;20665;-75
2022/04/10 06:21:31;;;;;;;1.95;1.73;;;;;;;;;;5082102;28;20193;-74
2022/04/10 06:23:58;;;;;;;2.10;1.88;;;;;;;;;;5088574;28;20216;-75
2022/04/10 06:26:25;;;;;;;3.85;2.25;;;;;;;;;;5079116;28;20232;-75
2022/04/10 06:28:53;;;;;;;4.05;2.05;;;;;;;;;;5086811;28;20210;-75
2022/04/10 06:31:20;;;;;;;6.78;2.83;;;;;;;;;;5086870;28;20240;-76
2022/04/10 06:33:49;;;;;;;2.83;1.90;;;;;;;;;;5076836;28;20206;-75
2022/04/10 06:36:16;;;;;;;3.35;1.75;;;;;;;;;;5080176;28;20282;-75
2022/04/10 06:38:43;;;;;;;5.60;2.47;;;;;;;;;;5080991;28;20568;-73
2022/04/10 06:41:10;;;;;;;7.30;1.85;;;;;;;;;;5082750;28;20192;-74
2022/04/10 06:43:37;;;;;;;4.35;2.10;;;;;;;;;;5078781;28;20198;-75
2022/04/10 06:46:06;;;;;;;5.53;2.10;;;;;;;;;;5082760;28;20212;-75
2022/04/10 06:48:35;;;;;;;2.17;1.83;;;;;;;;;;5073836;28;20679;-75
2022/04/10 06:51:04;;;;;;;3.35;2.17;;;;;;;;;;5084813;28;20193;-75
2022/04/10 06:53:31;;;;;;;2.95;1.85;;;;;;;;;;5088865;28;20206;-74
2022/04/10 06:55:58;;;;;;;4.45;2.05;;;;;;;;;;5087349;28;20205;-76
2022/04/10 06:58:25;;;;;;;3.03;1.98;;;;;;;;;;5073680;28;20206;-76
2022/04/10 07:00:52;;;;;;;4.07;2.72;;;;;;;;;;5079702;28;20207;-77
2022/04/10 07:03:19;;;;;;;3.40;2.17;;;;;;;;;;5086032;28;20704;-75
2022/04/10 07:05:48;;;;;;;3.45;2.13;;;;;;;;;;5080373;28;20202;-76
2022/04/10 07:08:16;;;;;;;6.07;2.58;;;;;;;;;;5076454;28;20228;-77
2022/04/10 07:10:43;;;;;;;2.35;1.85;;;;;;;;;;5072597;28;20542;-76
2022/04/10 07:13:11;;;;;;;2.50;1.83;;;;;;;;;;5084229;28;20209;-77
2022/04/10 07:15:40;;;;;;;2.05;1.77;;;;;;;;;;5083493;28;20193;-76
2022/04/10 07:18:07;;;;;;;2.60;2.08;;;;;;;;;;5074730;28;20729;-76
2022/04/10 07:20:35;;;;;;;4.93;1.90;;;;;;;;;;5070932;28;20229;-75
2022/04/10 07:25:48;;;;;;;5.18;1.77;;;;;;;;;;5080956;28;20330;-78
2022/04/10 07:28:16;;;;;;;4.68;1.85;;;;;;;;;;5076437;28;20228;-75
2022/04/10 07:30:43;;;;;;;3.00;2.20;;;;;;;;;;5077925;28;20433;-77
2022/04/10 07:33:10;;;;;;;4.63;2.15;;;;;;;;;;5072391;28;20270;-75
2022/04/10 07:35:37;;;;;;;3.22;2.20;;;;;;;;;;5076520;28;20206;-78
2022/04/10 07:38:05;;;;;;;4.45;1.90;;;;;;;;;;5072554;28;20193;-75
2022/04/10 07:40:32;;;;;;;2.30;1.63;;;;;;;;;;5084887;28;20205;-77
2022/04/10 07:43:01;;;;;;;2.47;1.90;;;;;;;;;;5074175;28;20208;-76
2022/04/10 07:48:13;;;;;;;2.63;2.13;;;;;;;;;;5077409;28;20201;-75
2022/04/10 07:50:40;;;;;;;3.88;2.00;;;;;;;;;;5080659;28;20668;-75
2022/04/10 07:53:07;;;;;;;3.85;2.10;;;;;;;;;;5085950;28;20467;-75
2022/04/10 07:55:34;;;;;;;3.40;1.95;;;;;;;;;;5087916;28;20198;-75
2022/04/10 07:58:03;;;;;;;3.38;1.85;;;;;;;;;;5079655;28;20197;-77
2022/04/10 08:00:32;;;;;;;2.60;2.10;;;;;;;;;;5084038;28;20198;-77
2022/04/10 08:02:59;;;;;;;2.45;1.67;;;;;;;;;;5077384;28;20193;-75
2022/04/10 08:05:26;;;;;;;3.53;1.65;;;;;;;;;;5086724;28;20571;-76
2022/04/10 08:07:53;;;;;;;4.80;1.80;;;;;;;;;;5081612;28;20553;-75
2022/04/10 08:10:20;;;;;;;6.03;2.15;;;;;;;;;;5083759;28;20201;-75
2022/04/10 08:12:48;;;;;;;3.53;2.08;;;;;;;;;;5083427;28;20580;-75
2022/04/10 08:15:16;;;;;;;3.65;1.77;;;;;;;;;;5069917;28;20201;-76
2022/04/10 08:17:44;;;;;;;2.60;1.80;;;;;;;;;;5067384;28;20196;-77
2022/04/10 08:20:13;;;;;;;2.10;1.75;;;;;;;;;;5068041;28;20201;-76
2022/04/10 08:22:40;;;;;;;2.10;1.90;;;;;;;;;;5070643;28;20189;-76
2022/04/10 08:25:08;;;;;;;1.88;1.65;;;;;;;;;;5076345;28;20205;-76
2022/04/10 08:27:35;;;;;;;11.25;2.17;;;;;;;;;;5078041;28;20577;-77
2022/04/10 08:30:03;;;;;;;3.67;2.17;;;;;;;;;;5081539;28;20280;-76
2022/04/10 08:32:37;;;;;;;3.75;2.40;;;;;;;;;;5082604;28;20228;-77
2022/04/10 08:35:05;;;;;;;2.45;1.80;;;;;;;;;;5075330;28;20216;-77
2022/04/10 08:37:32;;;;;;;2.45;1.55;;;;;;;;;;5086152;28;20189;-76
2022/04/10 08:39:59;;;;;;;2.65;1.65;;;;;;;;;;5079203;28;20193;-77
2022/04/10 08:42:26;;;;;;;3.83;1.98;;;;;;;;;;5079381;28;20595;-77
2022/04/10 08:44:54;;;;;;;2.50;1.75;;;;;;;;;;5075678;28;20194;-76
2022/04/10 08:47:22;;;;;;;3.08;1.90;;;;;;;;;;5081017;28;20655;-76
2022/04/10 08:49:51;;;;;;;3.38;1.60;;;;;;;;;;5077237;28;20560;-77
2022/04/10 08:52:21;;;;;;;2.92;1.48;;;;;;;;;;5078993;28;20248;-75
2022/04/10 08:54:49;;;;;;;1.83;1.35;;;;;;;;;;5081157;28;20568;-77
2022/04/10 08:57:16;;;;;;;2.05;1.25;;;;;;;;;;5075897;28;20208;-76
2022/04/10 08:59:44;;;;;;;3.70;1.75;;;;;;;;;;5072226;28;20565;-76
2022/04/10 09:02:11;;;;;;;2.20;1.83;;;;;;;;;;5074107;28;20196;-76
2022/04/10 09:04:39;;;;;;;4.43;1.70;;;;;;;;;;5074105;28;20644;-75
2022/04/10 09:07:08;;;;;;;2.83;1.30;;;;;;;;;;5074587;28;22757;-76
2022/04/10 09:09:36;;;;;;;3.55;1.40;;;;;;;;;;5072146;28;20194;-76
2022/04/10 09:12:04;;;;;;;3.50;2.00;;;;;;;;;;5071494;28;20695;-75
2022/04/10 09:14:35;;;;;;;2.45;1.55;;;;;;;;;;5079926;28;20205;-75
2022/04/10 09:17:13;;;;;;;2.33;1.42;;;;;;;;;;5081612;28;20229;-76
2022/04/10 09:19:41;;;;;;;1.50;1.40;;;;;;;;;;5073936;28;20649;-76
2022/04/10 09:22:27;;;;;;;6.53;2.88;;;;;;;;;;5079970;28;20198;-76
2022/04/10 09:25:08;;;;;;;3.78;1.30;;;;;;;;;;5078573;28;20213;-77
2022/04/10 09:27:36;;;;;;;1.95;1.58;;;;;;;;;;5083835;28;20867;-76
2022/04/10 09:30:04;;;;;;;4.90;1.70;;;;;;;;;;5087269;28;20307;-77
2022/04/10 09:32:38;;;;;;;3.92;2.55;;;;;;;;;;5075871;28;20795;-77
2022/04/10 09:35:05;;;;;;;1.75;0.95;;;;;;;;;;5084723;28;20206;-76
2022/04/10 09:37:42;;;;;;;3.97;1.70;;;;;;;;;;5079579;28;20197;-76
2022/04/10 09:40:25;;;;;;;5.95;2.38;;;;;;;;;;5073589;28;20190;-76
2022/04/10 09:42:52;;;;;;;5.72;1.83;;;;;;;;;;5081017;28;20201;-74
2022/04/10 09:45:32;;;;;;;2.22;1.60;;;;;;;;;;5092390;28;20201;-75
2022/04/10 09:48:17;;;;;;;1.80;1.17;;;;;;;;;;5086549;28;20301;-76
2022/04/10 09:50:45;;;;;;;1.85;1.30;;;;;;;;;;5089778;28;20208;-75
2022/04/10 09:53:13;;;;;;;2.10;1.80;;;;;;;;;;5090169;28;20225;-76
2022/04/10 09:55:41;;;;;;;2.42;1.50;;;;;;;;;;5082596;28;20644;-77
2022/04/10 09:58:10;;;;;;;2.83;1.45;;;;;;;;;;5076832;28;20713;-75
2022/04/10 10:00:39;;;;;;;2.20;1.35;;;;;;;;;;5086866;28;20227;-75
2022/04/10 10:03:06;;;;;;;2.08;1.50;;;;;;;;;;5083415;28;20189;-75
2022/04/10 10:05:33;;;;;;;4.65;1.55;;;;;;;;;;5072854;28;20599;-79
2022/04/10 10:08:01;;;;;;;2.42;1.33;;;;;;;;;;5073859;28;20205;-78
2022/04/10 10:10:31;;;;;;;4.15;1.80;;;;;;;;;;5075609;28;20206;-78
2022/04/10 10:13:00;;;;;;;2.88;1.65;;;;;;;;;;5079122;28;20209;-78
2022/04/10 10:15:27;;;;;;;2.25;1.38;;;;;;;;;;5085556;28;20289;-77
2022/04/10 10:17:55;;;;;;;3.88;1.42;;;;;;;;;;5077300;28;20251;-78
2022/04/10 10:20:23;;;;;;;6.55;2.55;;;;;;;;;;5076547;28;20190;-76
2022/04/10 10:22:50;;;;;;;2.92;1.55;;;;;;;;;;5090297;28;20193;-77
2022/04/10 10:25:19;;;;;;;2.55;1.15;;;;;;;;;;5084317;28;20202;-76
2022/04/10 10:27:55;;;;;;;1.80;1.50;;;;;;;;;;5090354;28;20258;-75
2022/04/10 10:30:27;;;;;;;1.40;1.25;;;;;;;;;;5075896;28;20392;-75
2022/04/10 10:32:56;;;;;;;2.10;1.10;;;;;;;;;;5076591;28;20221;-76
2022/04/10 10:35:34;;;;;;;1.67;1.30;;;;;;;;;;5082424;28;20209;-75
2022/04/10 10:38:01;;;;;;;2.47;1.38;;;;;;;;;;5069655;28;20201;-77
2022/04/10 10:40:28;;;;;;;1.83;1.17;;;;;;;;;;5081373;28;20255;-76
2022/04/10 10:43:00;;;;;;;5.57;1.58;;;;;;;;;;5080075;28;20201;-76
2022/04/10 10:45:34;;;;;;;2.17;1.42;;;;;;;;;;5070541;28;20202;-76
2022/04/10 10:48:18;;;;;;;3.05;1.25;;;;;;;;;;5079153;28;20197;-77
2022/04/10 10:50:45;;;;;;;1.30;1.20;;;;;;;;;;5071036;28;20520;-76
2022/04/10 10:53:13;;;;;;;2.05;1.35;;;;;;;;;;5073509;28;20604;-75
2022/04/10 10:55:47;;;;;;;1.27;1.17;;;;;;;;;;5084518;28;20201;-75
2022/04/10 10:58:17;;;;;;;3.15;1.30;;;;;;;;;;5070535;28;20197;-76
2022/04/10 11:00:46;;;;;;;1.55;0.95;;;;;;;;;;5071623;28;20198;-75
2022/04/10 11:03:14;;;;;;;2.47;1.05;;;;;;;;;;5079065;28;20412;-77
2022/04/10 11:05:41;;;;;;;3.60;1.40;;;;;;;;;;5082448;28;20209;-75
2022/04/10 11:08:09;;;;;;;1.55;1.10;;;;;;;;;;5080719;28;20685;-75
2022/04/10 11:10:37;;;;;;;2.17;1.23;;;;;;;;;;5073147;28;20251;-77
2022/04/10 11:13:06;;;;;;;1.92;1.00;;;;;;;;;;5071095;28;20210;-76
2022/04/10 11:15:35;;;;;;;1.52;1.10;;;;;;;;;;5076141;28;20190;-78
2022/04/10 11:18:20;;;;;;;3.58;1.20;;;;;;;;;;5078210;28;20198;-78
2022/04/10 11:20:54;;;;;;;2.63;1.30;;;;;;;;;;5084327;28;20201;-77
2022/04/10 11:23:21;;;;;;;2.13;1.20;;;;;;;;;;5084125;28;20229;-77
2022/04/10 11:25:54;;;;;;;1.33;1.08;;;;;;;;;;5080369;28;20221;-76
2022/04/10 11:28:25;;;;;;;1.48;0.93;;;;;;;;;;5081474;28;20267;-76
2022/04/10 11:30:54;;;;;;;1.45;0.90;;;;;;;;;;5087240;28;20193;-76
2022/04/10 11:33:21;;;;;;;5.40;1.08;;;;;;;;;;5087913;28;20217;-76
2022/04/10 11:35:56;;;;;;;3.50;1.45;;;;;;;;;;5078323;28;20193;-75
2022/04/10 11:38:24;;;;;;;2.55;1.00;;;;;;;;;;5086414;28;20254;-76
2022/04/10 11:40:52;;;;;;;2.55;1.20;;;;;;;;;;5083162;28;20205;-77
2022/04/10 11:43:20;;;;;;;1.60;1.10;;;;;;;;;;5084796;28;20862;-75
2022/04/10 11:45:50;;;;;;;2.20;1.20;;;;;;;;;;5084185;28;20198;-76
2022/04/10 11:48:18;;;;;;;1.20;0.88;;;;;;;;;;5085999;28;20201;-75
2022/04/10 11:50:45;;;;;;;1.80;1.25;;;;;;;;;;5075283;28;20288;-75
2022/04/10 11:53:13;;;;;;;1.90;1.05;;;;;;;;;;5078516;28;20622;-76
2022/04/10 11:55:41;;;;;;;2.22;1.05;;;;;;;;;;5079467;28;20558;-77
2022/04/10 11:58:13;;;;;;;2.10;1.40;;;;;;;;;;5087121;28;20209;-75
2022/04/10 12:00:44;;;;;;;1.52;0.95;;;;;;;;;;5074845;28;20287;-76
2022/04/10 12:03:12;;;;;;;2.65;1.90;;;;;;;;;;5082718;28;20178;-76
2022/04/10 12:05:40;;;;;;;2.65;1.02;;;;;;;;;;5068194;28;20692;-77
2022/04/10 12:08:08;;;;;;;1.20;1.00;;;;;;;;;;5068471;28;20534;-75
2022/04/10 12:10:35;;;;;;;2.05;0.90;;;;;;;;;;5067506;28;20765;-75
2022/04/10 12:13:03;;;;;;;2.35;0.80;;;;;;;;;;5077178;28;20209;-75
2022/04/10 12:15:30;;;;;;;1.88;1.30;;;;;;;;;;5079008;28;20198;-75
2022/04/10 12:18:16;;;;;;;2.30;0.98;;;;;;;;;;5085262;28;20217;-76
2022/04/10 12:20:45;;;;;;;1.50;1.17;;;;;;;;;;5077994;28;20246;-77
2022/04/10 12:23:21;;;;;;;1.13;0.80;;;;;;;;;;5074160;28;20197;-76
2022/04/10 12:25:49;;;;;;;2.13;1.00;;;;;;;;;;5080804;28;20328;-75
2022/04/10 12:28:16;;;;;;;1.38;0.88;;;;;;;;;;5076501;28;20479;-82
2022/04/10 12:30:44;;;;;;;3.20;1.23;;;;;;;;;;5081995;28;20293;-77
2022/04/10 12:33:12;;;;;;;1.58;1.17;;;;;;;;;;5084527;28;20315;-77
2022/04/10 12:35:39;;;;;;;1.98;1.10;;;;;;;;;;5084196;28;20202;-77
2022/04/10 12:38:08;;;;;;;2.20;0.90;;;;;;;;;;5072795;28;20198;-76
2022/04/10 12:40:36;;;;;;;1.88;1.50;;;;;;;;;;5080569;28;20235;-76
2022/04/10 12:43:04;;;;;;;11.77;1.33;;;;;;;;;;5081509;28;20718;-78
2022/04/10 12:45:31;;;;;;;2.08;1.08;;;;;;;;;;5076007;28;20198;-74
2022/04/10 12:47:59;;;;;;;1.40;0.90;;;;;;;;;;5084732;28;20684;-75
2022/04/10 12:50:28;;;;;;;1.40;0.80;;;;;;;;;;5072008;28;20202;-77
2022/04/10 12:52:55;;;;;;;2.00;1.17;;;;;;;;;;5076599;28;20653;-76
2022/04/10 12:55:24;;;;;;;2.03;1.00;;;;;;;;;;5078157;28;20194;-75
2022/04/10 12:57:55;;;;;;;1.20;1.00;;;;;;;;;;5070483;28;20552;-76
2022/04/10 13:00:30;;;;;;;1.55;0.80;;;;;;;;;;5070731;28;20673;-76
2022/04/10 13:02:57;;;;;;;1.63;1.08;;;;;;;;;;5073148;28;20193;-77
2022/04/10 13:05:25;;;;;;;1.50;1.02;;;;;;;;;;5080794;28;20210;-78
2022/04/10 13:07:56;;;;;;;3.30;1.08;;;;;;;;;;5079243;28;20202;-76
2022/04/10 13:10:24;;;;;;;0.90;0.80;;;;;;;;;;5075567;28;20220;-78
2022/04/10 13:12:51;;;;;;;1.55;0.95;;;;;;;;;;5083914;28;20244;-77
2022/04/10 13:15:32;;;;;;;1.10;0.90;;;;;;;;;;5076046;28;20209;-76
2022/04/10 13:17:59;;;;;;;0.90;0.75;;;;;;;;;;5074691;28;20204;-75
2022/04/10 13:20:27;;;;;;;3.08;0.90;;;;;;;;;;5075969;28;20222;-78
2022/04/10 13:22:54;;;;;;;1.80;0.93;;;;;;;;;;5079990;28;20198;-77
2022/04/10 13:25:22;;;;;;;1.00;0.90;;;;;;;;;;5083153;28;20201;-76
2022/04/10 13:27:52;;;;;;;1.23;0.90;;;;;;;;;;5074677;28;20229;-77
2022/04/10 13:30:20;;;;;;;1.00;0.80;;;;;;;;;;5073040;28;20209;-75
2022/04/10 13:32:47;;;;;;;1.73;1.10;;;;;;;;;;5086743;28;20224;-75
2022/04/10 13:35:15;;;;;;;1.67;0.90;;;;;;;;;;5079319;28;20217;-77
2022/04/10 13:37:42;;;;;;;1.85;0.80;;;;;;;;;;5076868;28;20198;-76
2022/04/10 13:40:10;;;;;;;2.17;1.00;;;;;;;;;;5076838;28;20680;-76
2022/04/10 13:42:37;;;;;;;1.00;0.90;;;;;;;;;;5071182;28;20933;-77
2022/04/10 13:45:06;;;;;;;1.25;0.88;;;;;;;;;;5079939;28;20204;-75
2022/04/10 13:47:33;;;;;;;1.95;0.82;;;;;;;;;;5081816;28;20205;-75
2022/04/10 13:50:00;;;;;;;1.95;0.80;;;;;;;;;;5079598;28;20201;-77
2022/04/10 13:52:27;;;;;;;1.80;1.05;;;;;;;;;;5076883;28;20194;-75
2022/04/10 13:54:54;;;;;;;3.95;1.50;;;;;;;;;;5086121;28;20233;-76
2022/04/10 13:57:22;;;;;;;2.03;1.10;;;;;;;;;;5083448;28;20572;-75
2022/04/10 13:59:49;;;;;;;2.47;1.00;;;;;;;;;;5076635;28;20193;-75
2022/04/10 14:02:17;;;;;;;2.80;0.93;;;;;;;;;;5081257;28;20193;-74
2022/04/10 14:04:44;;;;;;;1.73;1.10;;;;;;;;;;5083753;28;20197;-75
2022/04/10 14:07:12;;;;;;;3.08;1.05;;;;;;;;;;5078172;28;20214;-77
2022/04/10 14:09:39;;;;;;;2.70;1.00;;;;;;;;;;5079305;28;20523;-76
2022/04/10 14:12:07;;;;;;;1.60;0.80;;;;;;;;;;5072174;28;20207;-75
2022/04/10 14:14:36;;;;;;;2.45;0.98;;;;;;;;;;5079172;28;20230;-75
2022/04/10 14:17:03;;;;;;;1.20;0.90;;;;;;;;;;5079331;28;20200;-77
2022/04/10 14:19:31;;;;;;;1.70;0.80;;;;;;;;;;5077479;28;20209;-74
2022/04/10 14:21:58;;;;;;;1.55;0.85;;;;;;;;;;5080711;28;20576;-74
2022/04/10 14:24:26;;;;;;;2.33;0.93;;;;;;;;;;5081582;28;20210;-74
2022/04/10 14:26:54;;;;;;;2.30;1.15;;;;;;;;;;5078522;28;20202;-75
2022/04/10 14:29:21;;;;;;;0.98;0.75;;;;;;;;;;5081055;28;20764;-75
2022/04/10 14:31:48;;;;;;;1.92;1.20;;;;;;;;;;5082465;28;20199;-76
2022/04/10 14:34:17;;;;;;;1.98;0.90;;;;;;;;;;5074345;28;20209;-76
2022/04/10 14:36:45;;;;;;;1.90;0.80;;;;;;;;;;5085332;28;20273;-75
2022/04/10 14:39:12;;;;;;;2.30;0.90;;;;;;;;;;5075884;28;20202;-75
2022/04/10 14:41:42;;;;;;;1.50;0.90;;;;;;;;;;5078773;28;20202;-75
2022/04/10 14:44:10;;;;;;;1.38;0.90;;;;;;;;;;5079595;28;20209;-74
2022/04/10 14:46:37;;;;;;;2.13;1.00;;;;;;;;;;5080111;28;20217;-78
2022/04/10 14:49:04;;;;;;;1.85;1.00;;;;;;;;;;5069429;28;20299;-74
2022/04/10 14:51:31;;;;;;;2.25;0.80;;;;;;;;;;5075561;28;20326;-75
2022/04/10 14:54:00;;;;;;;2.47;1.00;;;;;;;;;;5080161;28;20789;-74